sensor_id;sensor_type;location;lat;lon;timestamp;pressure;altitude;pressure_sealevel;temperature;humidity
21728;BME280;11026;50.560;17.852;2022-10-31T00:01:16;99898.50;;;9.60;100.00
21728;BME280;11026;50.560;17.852;2022-10-31T00:03:44;99899.44;;;9.58;100.00
21728;BME280;11026;50.560;17.852;2022-10-31T00:06:21;99899.41;;;9.33;100.00
21728;BME280;11026;50.560;17.852;2022-10-31T00:08:55;99906.03;;;9.20;100.00
21728;BME280;11026;50.560;17.852;2022-10-31T00:11:26;99907.44;;;9.03;100.00
21728;BME280;11026;50.560;17.852;2022-10-31T00:17:37;99908.13;;;9.08;100.00
21728;BME280;11026;50.560;17.852;2022-10-31T00:20:09;99903.09;;;9.01;100.00
21728;BME280;11026;50.560;17.852;2022-10-31T00:22:46;99908.13;;;9.08;100.00
21728;BME280;11026;50.560;17.852;2022-10-31T00:25:13;99906.13;;;9.17;100.00
21728;BME280;11026;50.560;17.852;2022-10-31T00:27:42;99911.91;;;9.28;100.00
21728;BME280;11026;50.560;17.852;2022-10-31T00:30:11;99904.38;;;9.42;100.00
21728;BME280;11026;50.560;17.852;2022-10-31T00:32:53;99911.59;;;9.64;100.00
21728;BME280;11026;50.560;17.852;2022-10-31T00:38:16;99911.50;;;9.67;100.00
21728;BME280;11026;50.560;17.852;2022-10-31T00:40:43;99916.88;;;9.64;100.00
21728;BME280;11026;50.560;17.852;2022-10-31T00:43:21;99911.19;;;9.49;100.00
21728;BME280;11026;50.560;17.852;2022-10-31T00:45:56;99908.94;;;9.39;100.00
21728;BME280;11026;50.560;17.852;2022-10-31T00:48:26;99910.06;;;9.30;100.00
21728;BME280;11026;50.560;17.852;2022-10-31T00:50:53;99913.03;;;9.21;100.00
21728;BME280;11026;50.560;17.852;2022-10-31T00:53:42;99911.78;;;9.04;100.00
21728;BME280;11026;50.560;17.852;2022-10-31T00:56:11;99911.16;;;8.96;100.00
21728;BME280;11026;50.560;17.852;2022-10-31T00:58:48;99906.91;;;8.92;100.00
21728;BME280;11026;50.560;17.852;2022-10-31T01:01:22;99915.91;;;8.85;100.00
21728;BME280;11026;50.560;17.852;2022-10-31T01:03:59;99915.84;;;8.86;100.00
21728;BME280;11026;50.560;17.852;2022-10-31T01:06:27;99923.53;;;8.94;100.00
21728;BME280;11026;50.560;17.852;2022-10-31T01:08:54;99917.59;;;8.88;100.00
21728;BME280;11026;50.560;17.852;2022-10-31T01:11:22;99914.19;;;8.84;100.00
21728;BME280;11026;50.560;17.852;2022-10-31T01:13:52;99920.56;;;8.77;100.00
21728;BME280;11026;50.560;17.852;2022-10-31T01:16:22;99912.06;;;8.67;100.00
21728;BME280;11026;50.560;17.852;2022-10-31T01:18:50;99916.94;;;8.51;100.00
21728;BME280;11026;50.560;17.852;2022-10-31T01:21:27;99917.47;;;8.62;100.00
21728;BME280;11026;50.560;17.852;2022-10-31T01:23:56;99913.66;;;8.73;100.00
21728;BME280;11026;50.560;17.852;2022-10-31T01:26:25;99917.28;;;8.69;100.00
21728;BME280;11026;50.560;17.852;2022-10-31T01:28:58;99916.34;;;8.71;100.00
21728;BME280;11026;50.560;17.852;2022-10-31T01:31:28;99923.34;;;8.72;100.00
21728;BME280;11026;50.560;17.852;2022-10-31T01:33:57;99914.59;;;8.98;100.00
21728;BME280;11026;50.560;17.852;2022-10-31T01:36:34;99913.97;;;8.90;100.00
21728;BME280;11026;50.560;17.852;2022-10-31T01:39:11;99916.00;;;8.82;100.00
21728;BME280;11026;50.560;17.852;2022-10-31T01:41:43;99913.56;;;8.76;100.00
21728;BME280;11026;50.560;17.852;2022-10-31T01:46:54;99916.09;;;8.49;100.00
21728;BME280;11026;50.560;17.852;2022-10-31T01:49:42;99911.69;;;8.50;100.00
21728;BME280;11026;50.560;17.852;2022-10-31T01:55:01;99922.59;;;8.37;100.00
21728;BME280;11026;50.560;17.852;2022-10-31T01:58:07;99921.19;;;8.24;100.00
21728;BME280;11026;50.560;17.852;2022-10-31T02:00:35;99916.78;;;8.25;100.00
21728;BME280;11026;50.560;17.852;2022-10-31T02:03:04;99927.47;;;8.19;100.00
21728;BME280;11026;50.560;17.852;2022-10-31T02:05:42;99915.16;;;8.19;100.00
21728;BME280;11026;50.560;17.852;2022-10-31T02:08:29;99912.97;;;8.35;100.00
21728;BME280;11026;50.560;17.852;2022-10-31T02:10:58;99912.84;;;8.41;100.00
21728;BME280;11026;50.560;17.852;2022-10-31T02:13:41;99907.50;;;8.43;100.00
21728;BME280;11026;50.560;17.852;2022-10-31T02:16:09;99901.84;;;8.56;100.00
21728;BME280;11026;50.560;17.852;2022-10-31T02:18:37;99904.84;;;8.44;100.00
21728;BME280;11026;50.560;17.852;2022-10-31T02:30:05;99923.63;;;8.32;100.00
21728;BME280;11026;50.560;17.852;2022-10-31T02:38:23;99926.44;;;7.93;100.00
21728;BME280;11026;50.560;17.852;2022-10-31T02:46:33;99930.66;;;7.99;100.00
21728;BME280;11026;50.560;17.852;2022-10-31T02:49:23;99930.31;;;8.12;100.00
21728;BME280;11026;50.560;17.852;2022-10-31T02:51:53;99925.38;;;8.00;100.00
21728;BME280;11026;50.560;17.852;2022-10-31T02:54:30;99932.69;;;7.89;100.00
21728;BME280;11026;50.560;17.852;2022-10-31T02:57:02;99934.00;;;7.73;100.00
21728;BME280;11026;50.560;17.852;2022-10-31T02:59:34;99942.72;;;7.75;100.00
21728;BME280;11026;50.560;17.852;2022-10-31T03:08:24;99948.00;;;7.75;100.00
21728;BME280;11026;50.560;17.852;2022-10-31T03:11:15;99956.38;;;7.56;100.00
21728;BME280;11026;50.560;17.852;2022-10-31T03:17:13;99948.84;;;7.77;100.00
21728;BME280;11026;50.560;17.852;2022-10-31T03:19:52;99947.19;;;7.73;100.00
21728;BME280;11026;50.560;17.852;2022-10-31T03:22:27;99953.91;;;7.83;100.00
21728;BME280;11026;50.560;17.852;2022-10-31T03:25:01;99955.28;;;7.98;100.00
21728;BME280;11026;50.560;17.852;2022-10-31T03:27:33;99945.78;;;7.92;100.00
21728;BME280;11026;50.560;17.852;2022-10-31T03:30:09;99948.44;;;7.92;100.00
21728;BME280;11026;50.560;17.852;2022-10-31T03:33:02;99955.03;;;7.74;100.00
21728;BME280;11026;50.560;17.852;2022-10-31T03:35:35;99963.00;;;7.71;100.00
21728;BME280;11026;50.560;17.852;2022-10-31T03:38:31;99957.66;;;7.74;100.00
21728;BME280;11026;50.560;17.852;2022-10-31T03:41:03;99965.56;;;7.74;100.00
21728;BME280;11026;50.560;17.852;2022-10-31T03:43:38;99966.34;;;7.78;100.00
21728;BME280;11026;50.560;17.852;2022-10-31T03:46:08;99964.97;;;7.63;100.00
21728;BME280;11026;50.560;17.852;2022-10-31T03:48:35;99961.28;;;7.70;100.00
21728;BME280;11026;50.560;17.852;2022-10-31T03:56:48;99980.34;;;7.44;100.00
21728;BME280;11026;50.560;17.852;2022-10-31T03:59:23;99988.03;;;7.53;100.00
21728;BME280;11026;50.560;17.852;2022-10-31T04:02:00;99979.84;;;7.28;100.00
21728;BME280;11026;50.560;17.852;2022-10-31T04:04:32;99988.34;;;7.41;100.00
21728;BME280;11026;50.560;17.852;2022-10-31T04:07:01;99983.38;;;7.64;100.00
21728;BME280;11026;50.560;17.852;2022-10-31T04:09:34;99981.31;;;7.76;100.00
21728;BME280;11026;50.560;17.852;2022-10-31T04:12:08;99987.47;;;7.76;100.00
21728;BME280;11026;50.560;17.852;2022-10-31T04:14:52;99986.69;;;7.73;100.00
21728;BME280;11026;50.560;17.852;2022-10-31T04:17:22;99993.47;;;7.46;100.00
21728;BME280;11026;50.560;17.852;2022-10-31T04:19:50;99984.97;;;7.34;100.00
21728;BME280;11026;50.560;17.852;2022-10-31T04:22:19;99991.78;;;7.43;100.00
21728;BME280;11026;50.560;17.852;2022-10-31T04:24:47;99982.34;;;7.34;100.00
21728;BME280;11026;50.560;17.852;2022-10-31T04:27:15;99994.41;;;7.43;100.00
21728;BME280;11026;50.560;17.852;2022-10-31T04:29:43;99994.47;;;7.40;100.00
21728;BME280;11026;50.560;17.852;2022-10-31T04:32:18;99999.06;;;7.32;100.00
21728;BME280;11026;50.560;17.852;2022-10-31T04:34:45;99995.66;;;7.27;100.00
21728;BME280;11026;50.560;17.852;2022-10-31T04:37:14;99991.38;;;7.23;100.00
21728;BME280;11026;50.560;17.852;2022-10-31T04:40:01;99995.09;;;7.14;100.00
21728;BME280;11026;50.560;17.852;2022-10-31T04:42:31;99992.69;;;7.05;100.00
21728;BME280;11026;50.560;17.852;2022-10-31T04:45:00;99992.25;;;7.23;100.00
21728;BME280;11026;50.560;17.852;2022-10-31T04:47:31;99995.09;;;7.14;100.00
21728;BME280;11026;50.560;17.852;2022-10-31T04:49:59;100002.03;;;7.17;100.00
21728;BME280;11026;50.560;17.852;2022-10-31T04:52:27;100002.19;;;7.10;100.00
21728;BME280;11026;50.560;17.852;2022-10-31T04:54:55;99997.72;;;7.14;100.00
21728;BME280;11026;50.560;17.852;2022-10-31T04:57:22;99995.09;;;7.12;100.00
21728;BME280;11026;50.560;17.852;2022-10-31T04:59:50;100005.56;;;7.15;100.00
21728;BME280;11026;50.560;17.852;2022-10-31T05:02:17;99998.72;;;7.08;100.00
21728;BME280;11026;50.560;17.852;2022-10-31T05:04:44;100004.06;;;7.05;100.00
21728;BME280;11026;50.560;17.852;2022-10-31T05:07:11;100008.09;;;6.80;100.00
21728;BME280;11026;50.560;17.852;2022-10-31T05:09:41;100003.19;;;6.63;100.00
21728;BME280;11026;50.560;17.852;2022-10-31T05:12:08;100002.28;;;6.64;100.00
21728;BME280;11026;50.560;17.852;2022-10-31T05:14:36;100003.78;;;6.77;100.00
21728;BME280;11026;50.560;17.852;2022-10-31T05:17:04;100003.53;;;6.89;100.00
21728;BME280;11026;50.560;17.852;2022-10-31T05:19:31;99999.59;;;7.09;100.00
21728;BME280;11026;50.560;17.852;2022-10-31T05:22:02;100004.94;;;7.04;100.00
21728;BME280;11026;50.560;17.852;2022-10-31T05:24:29;100003.06;;;7.11;100.00
21728;BME280;11026;50.560;17.852;2022-10-31T05:27:04;100010.13;;;7.07;100.00
21728;BME280;11026;50.560;17.852;2022-10-31T05:29:38;100005.69;;;7.11;100.00
21728;BME280;11026;50.560;17.852;2022-10-31T05:32:06;100014.50;;;7.08;100.00
21728;BME280;11026;50.560;17.852;2022-10-31T05:34:36;100011.97;;;7.04;100.00
21728;BME280;11026;50.560;17.852;2022-10-31T05:37:03;100014.66;;;7.02;100.00
21728;BME280;11026;50.560;17.852;2022-10-31T05:39:32;100018.31;;;6.95;100.00
21728;BME280;11026;50.560;17.852;2022-10-31T05:42:01;100014.59;;;7.05;100.00
21728;BME280;11026;50.560;17.852;2022-10-31T05:44:38;100015.28;;;7.13;100.00
21728;BME280;11026;50.560;17.852;2022-10-31T05:47:13;100011.81;;;7.11;100.00
21728;BME280;11026;50.560;17.852;2022-10-31T05:49:40;100013.44;;;7.17;100.00
21728;BME280;11026;50.560;17.852;2022-10-31T05:52:07;100017.69;;;7.23;100.00
21728;BME280;11026;50.560;17.852;2022-10-31T05:54:43;100021.28;;;7.19;100.00
21728;BME280;11026;50.560;17.852;2022-10-31T05:57:25;100023.00;;;7.21;100.00
21728;BME280;11026;50.560;17.852;2022-10-31T05:59:59;100026.56;;;7.19;100.00
21728;BME280;11026;50.560;17.852;2022-10-31T06:02:31;100025.16;;;7.02;100.00
21728;BME280;11026;50.560;17.852;2022-10-31T06:05:02;100013.84;;;6.99;100.00
21728;BME280;11026;50.560;17.852;2022-10-31T06:07:33;100017.16;;;7.07;100.00
21728;BME280;11026;50.560;17.852;2022-10-31T06:10:04;100019.84;;;7.05;100.00
21728;BME280;11026;50.560;17.852;2022-10-31T06:12:44;100022.22;;;6.76;100.00
21728;BME280;11026;50.560;17.852;2022-10-31T06:15:13;100025.69;;;6.78;100.00
21728;BME280;11026;50.560;17.852;2022-10-31T06:17:46;100027.63;;;6.70;100.00
21728;BME280;11026;50.560;17.852;2022-10-31T06:20:14;100020.69;;;6.64;100.00
21728;BME280;11026;50.560;17.852;2022-10-31T06:22:48;100030.25;;;6.70;100.00
21728;BME280;11026;50.560;17.852;2022-10-31T06:25:28;100034.22;;;6.89;100.00
21728;BME280;11026;50.560;17.852;2022-10-31T06:27:57;100032.47;;;6.88;100.00
21728;BME280;11026;50.560;17.852;2022-10-31T06:30:24;100044.34;;;7.07;100.00
21728;BME280;11026;50.560;17.852;2022-10-31T06:32:52;100045.47;;;7.36;100.00
21728;BME280;11026;50.560;17.852;2022-10-31T06:35:21;100040.88;;;7.44;100.00
21728;BME280;11026;50.560;17.852;2022-10-31T06:37:53;100040.47;;;7.62;100.00
21728;BME280;11026;50.560;17.852;2022-10-31T06:40:20;100047.25;;;7.73;100.00
21728;BME280;11026;50.560;17.852;2022-10-31T06:43:01;100040.84;;;7.83;100.00
21728;BME280;11026;50.560;17.852;2022-10-31T06:45:28;100049.28;;;7.97;100.00
21728;BME280;11026;50.560;17.852;2022-10-31T06:47:57;100047.38;;;8.02;100.00
21728;BME280;11026;50.560;17.852;2022-10-31T06:50:48;100054.09;;;8.14;100.00
21728;BME280;11026;50.560;17.852;2022-10-31T06:53:28;100053.28;;;8.12;100.00
21728;BME280;11026;50.560;17.852;2022-10-31T06:56:05;100058.41;;;8.18;100.00
21728;BME280;11026;50.560;17.852;2022-10-31T06:58:46;100059.56;;;8.42;100.00
21728;BME280;11026;50.560;17.852;2022-10-31T07:01:13;100059.28;;;8.53;100.00
21728;BME280;11026;50.560;17.852;2022-10-31T07:03:40;100063.34;;;8.65;100.00
21728;BME280;11026;50.560;17.852;2022-10-31T07:06:09;100064.63;;;8.81;100.00
21728;BME280;11026;50.560;17.852;2022-10-31T07:08:36;100062.34;;;9.00;100.00
21728;BME280;11026;50.560;17.852;2022-10-31T07:11:06;100065.31;;;9.19;100.00
21728;BME280;11026;50.560;17.852;2022-10-31T07:13:34;100073.09;;;9.23;100.00
21728;BME280;11026;50.560;17.852;2022-10-31T07:16:06;100069.94;;;9.40;100.00
21728;BME280;11026;50.560;17.852;2022-10-31T07:18:35;100077.72;;;9.45;100.00
21728;BME280;11026;50.560;17.852;2022-10-31T07:21:03;100072.34;;;9.48;100.00
21728;BME280;11026;50.560;17.852;2022-10-31T07:23:30;100074.53;;;9.61;100.00
21728;BME280;11026;50.560;17.852;2022-10-31T07:26:04;100085.47;;;9.79;100.00
21728;BME280;11026;50.560;17.852;2022-10-31T07:28:37;100085.84;;;9.93;100.00
21728;BME280;11026;50.560;17.852;2022-10-31T07:31:05;100089.03;;;10.04;100.00
21728;BME280;11026;50.560;17.852;2022-10-31T07:33:33;100085.47;;;10.33;100.00
21728;BME280;11026;50.560;17.852;2022-10-31T07:36:03;100088.72;;;10.40;100.00
21728;BME280;11026;50.560;17.852;2022-10-31T07:38:35;100084.38;;;10.64;100.00
21728;BME280;11026;50.560;17.852;2022-10-31T07:41:09;100083.72;;;10.82;100.00
21728;BME280;11026;50.560;17.852;2022-10-31T07:43:36;100083.44;;;10.90;100.00
21728;BME280;11026;50.560;17.852;2022-10-31T07:46:11;100079.97;;;11.12;100.00
21728;BME280;11026;50.560;17.852;2022-10-31T07:48:39;100090.97;;;11.24;100.00
21728;BME280;11026;50.560;17.852;2022-10-31T07:51:36;100094.66;;;11.44;100.00
21728;BME280;11026;50.560;17.852;2022-10-31T07:54:09;100091.53;;;11.56;100.00
21728;BME280;11026;50.560;17.852;2022-10-31T07:56:36;100097.25;;;11.67;100.00
21728;BME280;11026;50.560;17.852;2022-10-31T07:59:04;100099.38;;;11.81;100.00
21728;BME280;11026;50.560;17.852;2022-10-31T08:01:32;100098.72;;;11.98;100.00
21728;BME280;11026;50.560;17.852;2022-10-31T08:04:05;100099.78;;;12.16;100.00
21728;BME280;11026;50.560;17.852;2022-10-31T08:06:36;100095.75;;;12.27;100.00
21728;BME280;11026;50.560;17.852;2022-10-31T08:09:04;100090.78;;;12.40;100.00
21728;BME280;11026;50.560;17.852;2022-10-31T08:11:56;100095.44;;;12.55;100.00
21728;BME280;11026;50.560;17.852;2022-10-31T08:14:27;100094.63;;;12.74;100.00
21728;BME280;11026;50.560;17.852;2022-10-31T08:16:54;100092.09;;;12.91;100.00
21728;BME280;11026;50.560;17.852;2022-10-31T08:19:33;100096.16;;;13.19;100.00
21728;BME280;11026;50.560;17.852;2022-10-31T08:22:00;100093.25;;;13.25;100.00
21728;BME280;11026;50.560;17.852;2022-10-31T08:24:29;100092.59;;;13.58;100.00
21728;BME280;11026;50.560;17.852;2022-10-31T08:26:59;100088.84;;;13.81;100.00
21728;BME280;11026;50.560;17.852;2022-10-31T08:29:27;100089.75;;;13.98;99.23
21728;BME280;11026;50.560;17.852;2022-10-31T08:31:54;100096.50;;;14.23;98.73
21728;BME280;11026;50.560;17.852;2022-10-31T08:34:21;100090.09;;;14.44;97.50
21728;BME280;11026;50.560;17.852;2022-10-31T08:36:49;100096.78;;;14.70;96.14
21728;BME280;11026;50.560;17.852;2022-10-31T08:39:19;100095.31;;;14.98;93.76
21728;BME280;11026;50.560;17.852;2022-10-31T08:41:52;100092.81;;;15.60;91.96
21728;BME280;11026;50.560;17.852;2022-10-31T08:44:25;100096.25;;;16.85;88.80
21728;BME280;11026;50.560;17.852;2022-10-31T08:46:54;100086.44;;;18.38;80.23
21728;BME280;11026;50.560;17.852;2022-10-31T08:49:21;100095.03;;;19.58;73.41
21728;BME280;11026;50.560;17.852;2022-10-31T08:51:49;100086.06;;;20.31;67.85
21728;BME280;11026;50.560;17.852;2022-10-31T08:54:16;100083.06;;;20.82;64.98
21728;BME280;11026;50.560;17.852;2022-10-31T08:56:45;100078.47;;;21.63;63.36
21728;BME280;11026;50.560;17.852;2022-10-31T08:59:12;100079.72;;;21.36;63.31
21728;BME280;11026;50.560;17.852;2022-10-31T09:01:41;100087.31;;;21.43;61.47
21728;BME280;11026;50.560;17.852;2022-10-31T09:04:09;100088.66;;;22.14;60.70
21728;BME280;11026;50.560;17.852;2022-10-31T09:06:51;100086.59;;;23.22;58.38
21728;BME280;11026;50.560;17.852;2022-10-31T09:09:46;100082.09;;;23.33;56.57
21728;BME280;11026;50.560;17.852;2022-10-31T09:12:13;100085.31;;;23.26;56.15
21728;BME280;11026;50.560;17.852;2022-10-31T09:14:49;100078.91;;;24.18;55.48
21728;BME280;11026;50.560;17.852;2022-10-31T09:17:18;100083.91;;;24.42;53.67
21728;BME280;11026;50.560;17.852;2022-10-31T09:19:46;100084.00;;;24.11;51.84
21728;BME280;11026;50.560;17.852;2022-10-31T09:22:27;100087.41;;;24.91;51.91
21728;BME280;11026;50.560;17.852;2022-10-31T09:24:56;100082.09;;;26.01;49.16
21728;BME280;11026;50.560;17.852;2022-10-31T09:27:28;100083.03;;;26.81;nan
21728;BME280;11026;50.560;17.852;2022-10-31T09:30:03;100083.47;;;27.63;44.81
21728;BME280;11026;50.560;17.852;2022-10-31T09:32:43;100074.00;;;27.67;44.35
21728;BME280;11026;50.560;17.852;2022-10-31T09:35:10;100072.09;;;27.59;43.88
21728;BME280;11026;50.560;17.852;2022-10-31T09:40:39;100074.16;;;28.08;39.48
21728;BME280;11026;50.560;17.852;2022-10-31T09:46:51;100078.47;;;26.64;41.12
21728;BME280;11026;50.560;17.852;2022-10-31T09:52:33;100064.50;;;25.87;41.65
21728;BME280;11026;50.560;17.852;2022-10-31T09:55:36;100073.31;;;25.89;42.83
21728;BME280;11026;50.560;17.852;2022-10-31T10:00:58;100076.38;;;26.04;41.97
21728;BME280;11026;50.560;17.852;2022-10-31T10:03:33;100080.41;;;26.00;42.06
21728;BME280;11026;50.560;17.852;2022-10-31T10:06:22;100071.66;;;26.24;41.53
21728;BME280;11026;50.560;17.852;2022-10-31T10:08:54;100076.88;;;26.53;40.94
21728;BME280;11026;50.560;17.852;2022-10-31T10:11:59;100070.03;;;26.13;41.42
21728;BME280;11026;50.560;17.852;2022-10-31T10:17:18;100069.34;;;26.91;40.45
21728;BME280;11026;50.560;17.852;2022-10-31T10:20:14;100071.09;;;27.00;40.29
21728;BME280;11026;50.560;17.852;2022-10-31T10:25:45;100064.50;;;28.54;37.62
21728;BME280;11026;50.560;17.852;2022-10-31T10:30:57;100055.13;;;30.16;35.60
21728;BME280;11026;50.560;17.852;2022-10-31T10:33:39;100055.53;;;30.04;34.92
21728;BME280;11026;50.560;17.852;2022-10-31T10:36:37;100059.75;;;29.84;35.49
21728;BME280;11026;50.560;17.852;2022-10-31T10:44:57;100054.38;;;29.68;34.85
21728;BME280;11026;50.560;17.852;2022-10-31T10:47:58;100047.63;;;29.86;35.61
21728;BME280;11026;50.560;17.852;2022-10-31T10:50:34;100042.88;;;30.72;35.57
21728;BME280;11026;50.560;17.852;2022-10-31T10:56:49;100033.34;;;31.50;33.49
21728;BME280;11026;50.560;17.852;2022-10-31T10:59:21;100037.03;;;31.79;33.30
21728;BME280;11026;50.560;17.852;2022-10-31T11:01:59;100038.22;;;32.06;32.52
21728;BME280;11026;50.560;17.852;2022-10-31T11:04:33;100027.19;;;31.99;32.89
21728;BME280;11026;50.560;17.852;2022-10-31T11:07:09;100034.13;;;31.44;32.53
21728;BME280;11026;50.560;17.852;2022-10-31T11:09:37;100026.50;;;30.57;33.55
21728;BME280;11026;50.560;17.852;2022-10-31T11:15:18;100031.47;;;30.54;33.98
21728;BME280;11026;50.560;17.852;2022-10-31T11:17:55;100029.03;;;30.97;33.29
21728;BME280;11026;50.560;17.852;2022-10-31T11:23:33;100023.34;;;31.43;32.88
21728;BME280;11026;50.560;17.852;2022-10-31T11:26:04;100034.63;;;32.27;32.31
21728;BME280;11026;50.560;17.852;2022-10-31T11:28:33;100026.69;;;33.10;31.06
21728;BME280;11026;50.560;17.852;2022-10-31T11:31:15;100017.47;;;33.59;30.72
21728;BME280;11026;50.560;17.852;2022-10-31T11:33:57;100012.25;;;33.29;30.52
21728;BME280;11026;50.560;17.852;2022-10-31T11:36:30;100019.47;;;32.74;30.50
21728;BME280;11026;50.560;17.852;2022-10-31T11:38:59;100023.50;;;32.50;30.96
21728;BME280;11026;50.560;17.852;2022-10-31T11:41:36;100016.88;;;32.94;31.09
21728;BME280;11026;50.560;17.852;2022-10-31T11:44:25;100012.81;;;33.59;30.26
21728;BME280;11026;50.560;17.852;2022-10-31T11:46:56;100017.72;;;33.29;30.46
21728;BME280;11026;50.560;17.852;2022-10-31T11:49:45;100009.66;;;33.21;30.00
21728;BME280;11026;50.560;17.852;2022-10-31T11:52:30;100006.34;;;33.32;30.41
21728;BME280;11026;50.560;17.852;2022-10-31T11:57:52;100017.47;;;32.61;31.38
21728;BME280;11026;50.560;17.852;2022-10-31T12:00:37;100014.94;;;32.38;31.93
21728;BME280;11026;50.560;17.852;2022-10-31T12:05:53;100007.97;;;32.36;31.14
21728;BME280;11026;50.560;17.852;2022-10-31T12:08:30;100002.97;;;32.18;31.56
21728;BME280;11026;50.560;17.852;2022-10-31T12:20:11;99993.88;;;33.71;30.55
21728;BME280;11026;50.560;17.852;2022-10-31T12:25:50;100004.31;;;32.78;30.80
21728;BME280;11026;50.560;17.852;2022-10-31T12:46:08;99990.22;;;34.65;29.29
21728;BME280;11026;50.560;17.852;2022-10-31T12:52:19;99978.56;;;34.23;30.06
21728;BME280;11026;50.560;17.852;2022-10-31T12:57:40;99977.28;;;34.12;29.99
21728;BME280;11026;50.560;17.852;2022-10-31T13:00:15;99967.72;;;33.75;30.36
21728;BME280;11026;50.560;17.852;2022-10-31T13:05:53;99971.38;;;34.02;30.55
21728;BME280;11026;50.560;17.852;2022-10-31T13:08:37;99966.53;;;34.11;30.48
21728;BME280;11026;50.560;17.852;2022-10-31T13:11:13;99976.63;;;34.83;29.73
21728;BME280;11026;50.560;17.852;2022-10-31T13:14:23;99971.53;;;34.93;30.14
21728;BME280;11026;50.560;17.852;2022-10-31T13:16:53;99975.63;;;34.38;30.57
21728;BME280;11026;50.560;17.852;2022-10-31T13:19:25;99970.53;;;34.35;30.24
21728;BME280;11026;50.560;17.852;2022-10-31T13:22:17;99971.81;;;34.59;29.98
21728;BME280;11026;50.560;17.852;2022-10-31T13:27:48;99967.56;;;34.76;29.58
21728;BME280;11026;50.560;17.852;2022-10-31T13:30:20;99963.97;;;34.89;29.40
21728;BME280;11026;50.560;17.852;2022-10-31T13:36:10;99967.72;;;35.08;29.49
21728;BME280;11026;50.560;17.852;2022-10-31T13:42:31;99966.28;;;34.72;29.77
21728;BME280;11026;50.560;17.852;2022-10-31T13:45:13;99959.78;;;34.33;29.96
21728;BME280;11026;50.560;17.852;2022-10-31T13:47:41;99952.91;;;33.56;31.25
21728;BME280;11026;50.560;17.852;2022-10-31T13:50:31;99956.56;;;33.28;31.51
21728;BME280;11026;50.560;17.852;2022-10-31T13:56:02;99952.00;;;33.42;31.73
21728;BME280;11026;50.560;17.852;2022-10-31T13:58:31;99954.56;;;33.57;31.14
21728;BME280;11026;50.560;17.852;2022-10-31T14:01:19;99949.28;;;33.49;31.16
21728;BME280;11026;50.560;17.852;2022-10-31T14:03:56;99941.97;;;33.89;31.03
21728;BME280;11026;50.560;17.852;2022-10-31T14:09:31;99946.81;;;33.81;31.06
21728;BME280;11026;50.560;17.852;2022-10-31T14:12:09;99940.78;;;33.98;30.78
21728;BME280;11026;50.560;17.852;2022-10-31T14:14:48;99937.38;;;34.03;30.49
21728;BME280;11026;50.560;17.852;2022-10-31T14:17:24;99934.16;;;33.93;31.09
21728;BME280;11026;50.560;17.852;2022-10-31T14:20:00;99935.03;;;33.87;31.62
21728;BME280;11026;50.560;17.852;2022-10-31T14:22:31;99940.91;;;33.70;31.74
21728;BME280;11026;50.560;17.852;2022-10-31T14:27:52;99936.69;;;33.13;32.04
21728;BME280;11026;50.560;17.852;2022-10-31T14:30:22;99922.22;;;32.91;32.74
21728;BME280;11026;50.560;17.852;2022-10-31T14:32:58;99925.88;;;32.64;33.11
21728;BME280;11026;50.560;17.852;2022-10-31T14:44:51;99929.69;;;31.34;34.93
21728;BME280;11026;50.560;17.852;2022-10-31T14:50:47;99920.44;;;30.31;36.72
21728;BME280;11026;50.560;17.852;2022-10-31T14:53:33;99920.44;;;29.71;37.49
21728;BME280;11026;50.560;17.852;2022-10-31T14:56:08;99915.31;;;29.13;38.54
21728;BME280;11026;50.560;17.852;2022-10-31T14:58:44;99917.53;;;28.62;39.20
21728;BME280;11026;50.560;17.852;2022-10-31T15:01:34;99917.06;;;28.18;40.22
21728;BME280;11026;50.560;17.852;2022-10-31T15:04:29;99917.91;;;27.61;41.11
21728;BME280;11026;50.560;17.852;2022-10-31T15:07:22;99922.13;;;26.97;42.74
21728;BME280;11026;50.560;17.852;2022-10-31T15:09:58;99919.72;;;26.34;43.61
21728;BME280;11026;50.560;17.852;2022-10-31T15:12:35;99930.22;;;25.75;44.93
21728;BME280;11026;50.560;17.852;2022-10-31T15:15:32;99918.13;;;25.06;46.77
21728;BME280;11026;50.560;17.852;2022-10-31T15:18:16;99922.38;;;24.34;48.28
21728;BME280;11026;50.560;17.852;2022-10-31T15:20:52;99917.59;;;23.60;51.64
21728;BME280;11026;50.560;17.852;2022-10-31T15:23:27;99923.16;;;22.99;53.83
21728;BME280;11026;50.560;17.852;2022-10-31T15:26:00;99917.59;;;22.29;55.85
21728;BME280;11026;50.560;17.852;2022-10-31T15:28:30;99921.25;;;21.87;57.71
21728;BME280;11026;50.560;17.852;2022-10-31T15:31:02;99919.06;;;20.71;61.74
21728;BME280;11026;50.560;17.852;2022-10-31T15:33:50;99914.25;;;20.30;64.27
21728;BME280;11026;50.560;17.852;2022-10-31T15:36:22;99905.34;;;20.29;65.27
21728;BME280;11026;50.560;17.852;2022-10-31T15:39:02;99903.78;;;19.92;66.29
21728;BME280;11026;50.560;17.852;2022-10-31T15:41:36;99899.19;;;20.05;67.15
21728;BME280;11026;50.560;17.852;2022-10-31T15:44:34;99903.78;;;19.92;67.28
21728;BME280;11026;50.560;17.852;2022-10-31T15:47:16;99908.50;;;19.53;67.95
21728;BME280;11026;50.560;17.852;2022-10-31T15:49:54;99911.00;;;19.19;68.82
21728;BME280;11026;50.560;17.852;2022-10-31T15:55:32;99918.97;;;18.71;71.95
21728;BME280;11026;50.560;17.852;2022-10-31T15:58:14;99916.72;;;18.39;73.22
21728;BME280;11026;50.560;17.852;2022-10-31T16:00:45;99931.69;;;18.04;74.77
21728;BME280;11026;50.560;17.852;2022-10-31T16:03:40;99920.66;;;18.08;74.34
21728;BME280;11026;50.560;17.852;2022-10-31T16:06:20;99920.34;;;18.00;74.86